sensor_id;sensor_type;location;lat;lon;timestamp;P1;durP1;ratioP1;P2;durP2;ratioP2
11771;SDS011;12556;55.748;13.194;2022-12-29T00:00:02;3.27;;;2.60;;
11771;SDS011;12556;55.748;13.194;2022-12-29T00:02:30;3.67;;;3.00;;
11771;SDS011;12556;55.748;13.194;2022-12-29T00:04:57;3.07;;;2.73;;
11771;SDS011;12556;55.748;13.194;2022-12-29T00:07:25;4.50;;;3.13;;
11771;SDS011;12556;55.748;13.194;2022-12-29T00:09:53;3.70;;;3.30;;
11771;SDS011;12556;55.748;13.194;2022-12-29T00:12:20;4.43;;;2.77;;
11771;SDS011;12556;55.748;13.194;2022-12-29T00:14:47;3.90;;;2.83;;
11771;SDS011;12556;55.748;13.194;2022-12-29T00:17:31;5.23;;;2.97;;
11771;SDS011;12556;55.748;13.194;2022-12-29T00:19:58;4.23;;;2.80;;
11771;SDS011;12556;55.748;13.194;2022-12-29T00:22:44;3.30;;;2.70;;
11771;SDS011;12556;55.748;13.194;2022-12-29T00:25:42;4.30;;;2.43;;
11771;SDS011;12556;55.748;13.194;2022-12-29T00:28:27;6.03;;;2.70;;
11771;SDS011;12556;55.748;13.194;2022-12-29T00:31:11;4.57;;;2.80;;
11771;SDS011;12556;55.748;13.194;2022-12-29T00:33:56;3.00;;;2.70;;
11771;SDS011;12556;55.748;13.194;2022-12-29T00:36:40;4.40;;;2.83;;
11771;SDS011;12556;55.748;13.194;2022-12-29T00:39:10;7.07;;;2.80;;
11771;SDS011;12556;55.748;13.194;2022-12-29T00:42:02;7.17;;;2.80;;
11771;SDS011;12556;55.748;13.194;2022-12-29T00:44:58;2.57;;;2.37;;
11771;SDS011;12556;55.748;13.194;2022-12-29T00:47:25;6.23;;;2.83;;
11771;SDS011;12556;55.748;13.194;2022-12-29T00:49:52;4.47;;;2.87;;
11771;SDS011;12556;55.748;13.194;2022-12-29T00:52:18;5.03;;;2.77;;
11771;SDS011;12556;55.748;13.194;2022-12-29T00:54:46;6.07;;;2.27;;
11771;SDS011;12556;55.748;13.194;2022-12-29T00:57:13;2.57;;;2.33;;
11771;SDS011;12556;55.748;13.194;2022-12-29T00:59:41;2.97;;;2.27;;
11771;SDS011;12556;55.748;13.194;2022-12-29T01:02:08;4.20;;;2.47;;
11771;SDS011;12556;55.748;13.194;2022-12-29T01:04:36;6.57;;;2.93;;
11771;SDS011;12556;55.748;13.194;2022-12-29T01:07:03;4.40;;;2.37;;
11771;SDS011;12556;55.748;13.194;2022-12-29T01:09:30;4.70;;;2.57;;
11771;SDS011;12556;55.748;13.194;2022-12-29T01:12:16;7.77;;;2.83;;
11771;SDS011;12556;55.748;13.194;2022-12-29T01:15:04;3.30;;;3.00;;
11771;SDS011;12556;55.748;13.194;2022-12-29T01:17:31;2.70;;;2.50;;
11771;SDS011;12556;55.748;13.194;2022-12-29T01:19:58;3.87;;;2.60;;
11771;SDS011;12556;55.748;13.194;2022-12-29T01:22:25;4.57;;;2.90;;
11771;SDS011;12556;55.748;13.194;2022-12-29T01:24:52;3.87;;;2.20;;
11771;SDS011;12556;55.748;13.194;2022-12-29T01:27:21;3.77;;;2.73;;
11771;SDS011;12556;55.748;13.194;2022-12-29T01:29:48;5.27;;;2.37;;
11771;SDS011;12556;55.748;13.194;2022-12-29T01:32:14;2.93;;;2.53;;
11771;SDS011;12556;55.748;13.194;2022-12-29T01:34:41;4.10;;;2.00;;
11771;SDS011;12556;55.748;13.194;2022-12-29T01:37:08;7.07;;;2.57;;
11771;SDS011;12556;55.748;13.194;2022-12-29T01:39:35;3.07;;;2.57;;
11771;SDS011;12556;55.748;13.194;2022-12-29T01:42:02;3.43;;;2.47;;
11771;SDS011;12556;55.748;13.194;2022-12-29T01:44:48;5.17;;;2.47;;
11771;SDS011;12556;55.748;13.194;2022-12-29T01:47:28;2.63;;;2.30;;
11771;SDS011;12556;55.748;13.194;2022-12-29T01:50:00;2.83;;;2.27;;
11771;SDS011;12556;55.748;13.194;2022-12-29T01:52:32;3.20;;;1.80;;
11771;SDS011;12556;55.748;13.194;2022-12-29T01:55:01;3.60;;;2.43;;
11771;SDS011;12556;55.748;13.194;2022-12-29T01:57:31;3.67;;;2.30;;
11771;SDS011;12556;55.748;13.194;2022-12-29T02:00:03;2.13;;;1.97;;
11771;SDS011;12556;55.748;13.194;2022-12-29T02:02:33;2.30;;;2.10;;
11771;SDS011;12556;55.748;13.194;2022-12-29T02:05:01;3.00;;;2.00;;
11771;SDS011;12556;55.748;13.194;2022-12-29T02:07:32;2.33;;;2.03;;
11771;SDS011;12556;55.748;13.194;2022-12-29T02:09:59;3.00;;;1.80;;
11771;SDS011;12556;55.748;13.194;2022-12-29T02:12:27;2.23;;;1.70;;
11771;SDS011;12556;55.748;13.194;2022-12-29T02:14:55;2.17;;;1.90;;
11771;SDS011;12556;55.748;13.194;2022-12-29T02:17:29;2.07;;;1.70;;
11771;SDS011;12556;55.748;13.194;2022-12-29T02:20:16;2.17;;;2.00;;
11771;SDS011;12556;55.748;13.194;2022-12-29T02:23:18;2.23;;;1.50;;
11771;SDS011;12556;55.748;13.194;2022-12-29T02:26:39;2.37;;;1.60;;
11771;SDS011;12556;55.748;13.194;2022-12-29T02:32:20;4.87;;;1.60;;
11771;SDS011;12556;55.748;13.194;2022-12-29T02:34:55;1.97;;;1.83;;
11771;SDS011;12556;55.748;13.194;2022-12-29T02:37:30;2.13;;;2.03;;
11771;SDS011;12556;55.748;13.194;2022-12-29T02:40:04;2.23;;;2.03;;
11771;SDS011;12556;55.748;13.194;2022-12-29T02:42:41;1.60;;;1.50;;
11771;SDS011;12556;55.748;13.194;2022-12-29T02:45:15;1.50;;;1.40;;
11771;SDS011;12556;55.748;13.194;2022-12-29T02:47:54;2.77;;;1.80;;
11771;SDS011;12556;55.748;13.194;2022-12-29T02:50:38;1.97;;;1.70;;
11771;SDS011;12556;55.748;13.194;2022-12-29T02:55:47;1.93;;;1.77;;
11771;SDS011;12556;55.748;13.194;2022-12-29T02:58:15;3.33;;;1.47;;
11771;SDS011;12556;55.748;13.194;2022-12-29T03:00:48;2.07;;;1.83;;
11771;SDS011;12556;55.748;13.194;2022-12-29T03:03:34;3.00;;;2.00;;
11771;SDS011;12556;55.748;13.194;2022-12-29T03:06:14;2.47;;;2.10;;
11771;SDS011;12556;55.748;13.194;2022-12-29T03:08:58;2.43;;;2.03;;
11771;SDS011;12556;55.748;13.194;2022-12-29T03:14:48;2.87;;;2.23;;
11771;SDS011;12556;55.748;13.194;2022-12-29T03:17:44;2.83;;;2.60;;
11771;SDS011;12556;55.748;13.194;2022-12-29T03:20:20;2.37;;;2.07;;
11771;SDS011;12556;55.748;13.194;2022-12-29T03:22:51;3.83;;;2.30;;
11771;SDS011;12556;55.748;13.194;2022-12-29T03:25:26;2.73;;;2.37;;
11771;SDS011;12556;55.748;13.194;2022-12-29T03:27:57;4.20;;;2.63;;
11771;SDS011;12556;55.748;13.194;2022-12-29T03:30:27;2.90;;;2.53;;
11771;SDS011;12556;55.748;13.194;2022-12-29T03:32:58;3.10;;;2.80;;
11771;SDS011;12556;55.748;13.194;2022-12-29T03:35:31;4.03;;;2.97;;
11771;SDS011;12556;55.748;13.194;2022-12-29T03:38:06;2.37;;;2.17;;
11771;SDS011;12556;55.748;13.194;2022-12-29T03:40:37;3.00;;;2.70;;
11771;SDS011;12556;55.748;13.194;2022-12-29T03:43:06;3.67;;;2.60;;
11771;SDS011;12556;55.748;13.194;2022-12-29T03:45:34;5.77;;;2.90;;
11771;SDS011;12556;55.748;13.194;2022-12-29T03:48:01;5.47;;;2.97;;
11771;SDS011;12556;55.748;13.194;2022-12-29T03:50:29;4.43;;;3.33;;
11771;SDS011;12556;55.748;13.194;2022-12-29T03:52:56;7.00;;;3.70;;
11771;SDS011;12556;55.748;13.194;2022-12-29T03:55:23;8.87;;;3.60;;
11771;SDS011;12556;55.748;13.194;2022-12-29T03:57:50;5.80;;;4.17;;
11771;SDS011;12556;55.748;13.194;2022-12-29T04:00:17;5.17;;;4.20;;
11771;SDS011;12556;55.748;13.194;2022-12-29T04:02:44;4.87;;;4.30;;
11771;SDS011;12556;55.748;13.194;2022-12-29T04:05:11;5.40;;;4.30;;
11771;SDS011;12556;55.748;13.194;2022-12-29T04:07:39;5.10;;;4.37;;
11771;SDS011;12556;55.748;13.194;2022-12-29T04:10:06;5.97;;;4.60;;
11771;SDS011;12556;55.748;13.194;2022-12-29T04:12:34;6.43;;;5.40;;
11771;SDS011;12556;55.748;13.194;2022-12-29T04:15:01;6.97;;;4.70;;
11771;SDS011;12556;55.748;13.194;2022-12-29T04:17:28;5.90;;;5.00;;
11771;SDS011;12556;55.748;13.194;2022-12-29T04:19:54;6.33;;;5.03;;
11771;SDS011;12556;55.748;13.194;2022-12-29T04:22:43;6.30;;;4.80;;
11771;SDS011;12556;55.748;13.194;2022-12-29T04:25:10;8.90;;;4.53;;
11771;SDS011;12556;55.748;13.194;2022-12-29T04:27:36;6.27;;;4.63;;
11771;SDS011;12556;55.748;13.194;2022-12-29T04:30:04;5.43;;;4.77;;
11771;SDS011;12556;55.748;13.194;2022-12-29T04:32:31;8.00;;;4.80;;
11771;SDS011;12556;55.748;13.194;2022-12-29T04:34:58;9.27;;;4.53;;
11771;SDS011;12556;55.748;13.194;2022-12-29T04:37:25;10.10;;;5.43;;
11771;SDS011;12556;55.748;13.194;2022-12-29T04:39:54;7.70;;;5.30;;
11771;SDS011;12556;55.748;13.194;2022-12-29T04:42:21;8.53;;;4.50;;
11771;SDS011;12556;55.748;13.194;2022-12-29T04:44:47;5.40;;;4.57;;
11771;SDS011;12556;55.748;13.194;2022-12-29T04:47:14;6.50;;;5.70;;
11771;SDS011;12556;55.748;13.194;2022-12-29T04:49:41;10.60;;;5.60;;
11771;SDS011;12556;55.748;13.194;2022-12-29T04:52:08;6.30;;;5.13;;
11771;SDS011;12556;55.748;13.194;2022-12-29T04:54:35;7.03;;;4.70;;
11771;SDS011;12556;55.748;13.194;2022-12-29T04:57:04;5.83;;;4.90;;
11771;SDS011;12556;55.748;13.194;2022-12-29T04:59:30;8.80;;;4.90;;
11771;SDS011;12556;55.748;13.194;2022-12-29T05:01:58;8.27;;;5.17;;
11771;SDS011;12556;55.748;13.194;2022-12-29T05:04:25;5.43;;;4.60;;
11771;SDS011;12556;55.748;13.194;2022-12-29T05:06:52;6.27;;;4.80;;
11771;SDS011;12556;55.748;13.194;2022-12-29T05:09:18;6.57;;;5.10;;
11771;SDS011;12556;55.748;13.194;2022-12-29T05:11:45;8.80;;;4.80;;
11771;SDS011;12556;55.748;13.194;2022-12-29T05:14:14;10.70;;;4.70;;
11771;SDS011;12556;55.748;13.194;2022-12-29T05:16:40;6.73;;;4.87;;
11771;SDS011;12556;55.748;13.194;2022-12-29T05:19:07;8.67;;;4.67;;
11771;SDS011;12556;55.748;13.194;2022-12-29T05:21:34;5.57;;;4.40;;
11771;SDS011;12556;55.748;13.194;2022-12-29T05:24:01;6.17;;;4.60;;
11771;SDS011;12556;55.748;13.194;2022-12-29T05:26:28;5.37;;;4.50;;
11771;SDS011;12556;55.748;13.194;2022-12-29T05:28:55;6.07;;;4.60;;
11771;SDS011;12556;55.748;13.194;2022-12-29T05:31:23;5.87;;;4.13;;
11771;SDS011;12556;55.748;13.194;2022-12-29T05:33:50;6.90;;;4.53;;
11771;SDS011;12556;55.748;13.194;2022-12-29T05:36:17;5.30;;;4.20;;
11771;SDS011;12556;55.748;13.194;2022-12-29T05:38:44;7.90;;;4.30;;
11771;SDS011;12556;55.748;13.194;2022-12-29T05:41:11;8.00;;;4.10;;
11771;SDS011;12556;55.748;13.194;2022-12-29T05:43:38;6.20;;;4.87;;
11771;SDS011;12556;55.748;13.194;2022-12-29T05:46:05;5.67;;;4.37;;
11771;SDS011;12556;55.748;13.194;2022-12-29T05:48:33;4.10;;;3.70;;
11771;SDS011;12556;55.748;13.194;2022-12-29T05:51:00;4.67;;;3.80;;
11771;SDS011;12556;55.748;13.194;2022-12-29T05:53:27;5.70;;;4.20;;
11771;SDS011;12556;55.748;13.194;2022-12-29T05:55:54;4.57;;;3.37;;
11771;SDS011;12556;55.748;13.194;2022-12-29T05:58:21;4.40;;;3.87;;
11771;SDS011;12556;55.748;13.194;2022-12-29T06:00:47;5.20;;;4.03;;
11771;SDS011;12556;55.748;13.194;2022-12-29T06:03:14;4.27;;;3.43;;
11771;SDS011;12556;55.748;13.194;2022-12-29T06:05:43;5.07;;;4.07;;
11771;SDS011;12556;55.748;13.194;2022-12-29T06:08:11;5.27;;;4.03;;
11771;SDS011;12556;55.748;13.194;2022-12-29T06:10:37;4.57;;;4.07;;
11771;SDS011;12556;55.748;13.194;2022-12-29T06:13:05;4.20;;;3.33;;
11771;SDS011;12556;55.748;13.194;2022-12-29T06:15:32;5.30;;;3.63;;
11771;SDS011;12556;55.748;13.194;2022-12-29T06:17:59;4.57;;;4.10;;
11771;SDS011;12556;55.748;13.194;2022-12-29T06:20:26;4.23;;;3.83;;
11771;SDS011;12556;55.748;13.194;2022-12-29T06:22:54;4.40;;;4.00;;
11771;SDS011;12556;55.748;13.194;2022-12-29T06:25:21;7.10;;;4.30;;
11771;SDS011;12556;55.748;13.194;2022-12-29T06:27:48;6.13;;;4.10;;
11771;SDS011;12556;55.748;13.194;2022-12-29T06:30:15;5.77;;;3.73;;
11771;SDS011;12556;55.748;13.194;2022-12-29T06:32:42;7.27;;;3.90;;
11771;SDS011;12556;55.748;13.194;2022-12-29T06:35:10;5.97;;;4.07;;
11771;SDS011;12556;55.748;13.194;2022-12-29T06:37:38;5.03;;;4.53;;
11771;SDS011;12556;55.748;13.194;2022-12-29T06:40:07;7.10;;;4.37;;
11771;SDS011;12556;55.748;13.194;2022-12-29T06:42:34;7.50;;;3.90;;
11771;SDS011;12556;55.748;13.194;2022-12-29T06:45:01;5.33;;;4.10;;
11771;SDS011;12556;55.748;13.194;2022-12-29T06:47:28;6.50;;;3.97;;
11771;SDS011;12556;55.748;13.194;2022-12-29T06:49:55;5.33;;;4.57;;
11771;SDS011;12556;55.748;13.194;2022-12-29T06:52:23;7.43;;;3.90;;
11771;SDS011;12556;55.748;13.194;2022-12-29T06:54:49;6.50;;;4.40;;
11771;SDS011;12556;55.748;13.194;2022-12-29T06:57:18;6.00;;;4.03;;
11771;SDS011;12556;55.748;13.194;2022-12-29T06:59:45;6.90;;;4.13;;
11771;SDS011;12556;55.748;13.194;2022-12-29T07:02:12;5.23;;;4.33;;
11771;SDS011;12556;55.748;13.194;2022-12-29T07:04:39;6.40;;;4.17;;
11771;SDS011;12556;55.748;13.194;2022-12-29T07:07:06;4.80;;;4.10;;
11771;SDS011;12556;55.748;13.194;2022-12-29T07:09:33;7.97;;;4.47;;
11771;SDS011;12556;55.748;13.194;2022-12-29T07:12:00;5.80;;;4.43;;
11771;SDS011;12556;55.748;13.194;2022-12-29T07:14:28;7.93;;;4.17;;
11771;SDS011;12556;55.748;13.194;2022-12-29T07:16:55;7.50;;;4.27;;
11771;SDS011;12556;55.748;13.194;2022-12-29T07:19:22;7.20;;;3.93;;
11771;SDS011;12556;55.748;13.194;2022-12-29T07:21:49;6.17;;;3.90;;
11771;SDS011;12556;55.748;13.194;2022-12-29T07:24:16;4.07;;;3.67;;
11771;SDS011;12556;55.748;13.194;2022-12-29T07:26:43;6.00;;;3.57;;
11771;SDS011;12556;55.748;13.194;2022-12-29T07:29:10;4.03;;;3.63;;
11771;SDS011;12556;55.748;13.194;2022-12-29T07:31:38;4.63;;;3.43;;
11771;SDS011;12556;55.748;13.194;2022-12-29T07:34:05;4.03;;;3.63;;
11771;SDS011;12556;55.748;13.194;2022-12-29T07:36:34;4.53;;;3.47;;
11771;SDS011;12556;55.748;13.194;2022-12-29T07:39:01;6.27;;;3.73;;
11771;SDS011;12556;55.748;13.194;2022-12-29T07:41:28;3.60;;;3.27;;
11771;SDS011;12556;55.748;13.194;2022-12-29T07:43:55;4.83;;;3.70;;
11771;SDS011;12556;55.748;13.194;2022-12-29T07:46:22;7.20;;;4.20;;
11771;SDS011;12556;55.748;13.194;2022-12-29T07:48:51;4.90;;;2.97;;
11771;SDS011;12556;55.748;13.194;2022-12-29T07:51:18;4.80;;;3.43;;
11771;SDS011;12556;55.748;13.194;2022-12-29T07:53:45;4.40;;;3.43;;
11771;SDS011;12556;55.748;13.194;2022-12-29T07:56:12;7.53;;;3.27;;
11771;SDS011;12556;55.748;13.194;2022-12-29T07:58:38;5.47;;;3.30;;
11771;SDS011;12556;55.748;13.194;2022-12-29T08:01:05;8.30;;;3.00;;
11771;SDS011;12556;55.748;13.194;2022-12-29T08:03:32;3.17;;;2.67;;
11771;SDS011;12556;55.748;13.194;2022-12-29T08:06:00;3.60;;;3.00;;
11771;SDS011;12556;55.748;13.194;2022-12-29T08:08:27;3.17;;;2.87;;
11771;SDS011;12556;55.748;13.194;2022-12-29T08:10:54;8.40;;;3.20;;
11771;SDS011;12556;55.748;13.194;2022-12-29T08:13:21;5.17;;;3.07;;
11771;SDS011;12556;55.748;13.194;2022-12-29T08:15:48;4.60;;;2.80;;
11771;SDS011;12556;55.748;13.194;2022-12-29T08:18:15;3.27;;;2.80;;
11771;SDS011;12556;55.748;13.194;2022-12-29T08:20:42;3.87;;;2.20;;
11771;SDS011;12556;55.748;13.194;2022-12-29T08:23:10;3.13;;;2.20;;
11771;SDS011;12556;55.748;13.194;2022-12-29T08:25:37;4.83;;;2.43;;
11771;SDS011;12556;55.748;13.194;2022-12-29T08:28:04;3.90;;;2.70;;
11771;SDS011;12556;55.748;13.194;2022-12-29T08:30:30;5.33;;;2.77;;
11771;SDS011;12556;55.748;13.194;2022-12-29T08:32:57;3.93;;;2.60;;
11771;SDS011;12556;55.748;13.194;2022-12-29T08:35:24;2.50;;;2.30;;
11771;SDS011;12556;55.748;13.194;2022-12-29T08:37:51;3.20;;;2.30;;
11771;SDS011;12556;55.748;13.194;2022-12-29T08:40:20;6.10;;;2.57;;
11771;SDS011;12556;55.748;13.194;2022-12-29T08:42:46;4.00;;;2.13;;
11771;SDS011;12556;55.748;13.194;2022-12-29T08:45:13;5.30;;;2.47;;
11771;SDS011;12556;55.748;13.194;2022-12-29T08:47:40;6.33;;;2.40;;
11771;SDS011;12556;55.748;13.194;2022-12-29T08:50:07;5.67;;;2.60;;
11771;SDS011;12556;55.748;13.194;2022-12-29T08:52:34;4.13;;;1.93;;
11771;SDS011;12556;55.748;13.194;2022-12-29T08:55:01;3.87;;;1.93;;
11771;SDS011;12556;55.748;13.194;2022-12-29T08:57:30;3.37;;;2.10;;
11771;SDS011;12556;55.748;13.194;2022-12-29T08:59:56;2.50;;;1.53;;
11771;SDS011;12556;55.748;13.194;2022-12-29T09:02:24;2.23;;;1.77;;
11771;SDS011;12556;55.748;13.194;2022-12-29T09:04:50;3.63;;;1.90;;
11771;SDS011;12556;55.748;13.194;2022-12-29T09:07:17;4.30;;;2.10;;
11771;SDS011;12556;55.748;13.194;2022-12-29T09:09:44;2.40;;;1.97;;
11771;SDS011;12556;55.748;13.194;2022-12-29T09:12:11;2.33;;;1.63;;
11771;SDS011;12556;55.748;13.194;2022-12-29T09:14:39;5.97;;;2.47;;
11771;SDS011;12556;55.748;13.194;2022-12-29T09:17:07;3.70;;;2.47;;
11771;SDS011;12556;55.748;13.194;2022-12-29T09:19:52;2.70;;;1.93;;
11771;SDS011;12556;55.748;13.194;2022-12-29T09:22:20;5.20;;;2.60;;
11771;SDS011;12556;55.748;13.194;2022-12-29T09:24:46;2.43;;;1.97;;
11771;SDS011;12556;55.748;13.194;2022-12-29T09:27:13;2.90;;;2.10;;
11771;SDS011;12556;55.748;13.194;2022-12-29T09:29:42;6.37;;;2.07;;
11771;SDS011;12556;55.748;13.194;2022-12-29T09:32:09;4.60;;;2.40;;
11771;SDS011;12556;55.748;13.194;2022-12-29T09:34:35;3.10;;;2.10;;
11771;SDS011;12556;55.748;13.194;2022-12-29T09:37:02;3.57;;;2.03;;
11771;SDS011;12556;55.748;13.194;2022-12-29T09:39:29;4.03;;;1.83;;
11771;SDS011;12556;55.748;13.194;2022-12-29T09:41:58;8.27;;;2.30;;
11771;SDS011;12556;55.748;13.194;2022-12-29T09:44:31;3.53;;;1.73;;
11771;SDS011;12556;55.748;13.194;2022-12-29T09:47:14;2.67;;;1.90;;
11771;SDS011;12556;55.748;13.194;2022-12-29T09:49:44;2.87;;;1.93;;
11771;SDS011;12556;55.748;13.194;2022-12-29T09:52:16;3.27;;;2.03;;
11771;SDS011;12556;55.748;13.194;2022-12-29T09:54:49;4.70;;;2.73;;
11771;SDS011;12556;55.748;13.194;2022-12-29T09:57:20;2.50;;;1.80;;
11771;SDS011;12556;55.748;13.194;2022-12-29T09:59:52;3.20;;;2.00;;
11771;SDS011;12556;55.748;13.194;2022-12-29T10:02:31;4.90;;;1.97;;
11771;SDS011;12556;55.748;13.194;2022-12-29T10:05:03;2.23;;;1.97;;
11771;SDS011;12556;55.748;13.194;2022-12-29T10:07:39;5.27;;;2.47;;
11771;SDS011;12556;55.748;13.194;2022-12-29T10:10:15;4.60;;;2.27;;
11771;SDS011;12556;55.748;13.194;2022-12-29T10:12:57;3.00;;;2.50;;
11771;SDS011;12556;55.748;13.194;2022-12-29T10:15:40;3.27;;;2.00;;
11771;SDS011;12556;55.748;13.194;2022-12-29T10:18:20;2.20;;;2.00;;
11771;SDS011;12556;55.748;13.194;2022-12-29T10:20:58;5.50;;;2.37;;
11771;SDS011;12556;55.748;13.194;2022-12-29T10:23:32;4.90;;;2.23;;
11771;SDS011;12556;55.748;13.194;2022-12-29T10:26:02;4.00;;;1.90;;
11771;SDS011;12556;55.748;13.194;2022-12-29T10:28:33;5.27;;;2.40;;
11771;SDS011;12556;55.748;13.194;2022-12-29T10:31:05;3.77;;;2.50;;
11771;SDS011;12556;55.748;13.194;2022-12-29T10:33:36;2.53;;;2.33;;
11771;SDS011;12556;55.748;13.194;2022-12-29T10:36:10;3.30;;;2.20;;
11771;SDS011;12556;55.748;13.194;2022-12-29T10:38:43;1.70;;;1.60;;
11771;SDS011;12556;55.748;13.194;2022-12-29T10:41:17;3.83;;;2.17;;
11771;SDS011;12556;55.748;13.194;2022-12-29T10:43:48;3.57;;;2.00;;
11771;SDS011;12556;55.748;13.194;2022-12-29T10:46:19;3.40;;;1.70;;
11771;SDS011;12556;55.748;13.194;2022-12-29T10:48:50;4.53;;;1.93;;
11771;SDS011;12556;55.748;13.194;2022-12-29T10:51:18;4.47;;;1.73;;
11771;SDS011;12556;55.748;13.194;2022-12-29T10:53:49;5.20;;;1.77;;
11771;SDS011;12556;55.748;13.194;2022-12-29T10:56:22;3.83;;;1.67;;
11771;SDS011;12556;55.748;13.194;2022-12-29T10:58:56;5.93;;;1.80;;
11771;SDS011;12556;55.748;13.194;2022-12-29T11:01:30;2.70;;;1.70;;
11771;SDS011;12556;55.748;13.194;2022-12-29T11:04:03;7.20;;;2.27;;
11771;SDS011;12556;55.748;13.194;2022-12-29T11:06:34;2.17;;;1.70;;
11771;SDS011;12556;55.748;13.194;2022-12-29T11:09:08;2.80;;;2.07;;
11771;SDS011;12556;55.748;13.194;2022-12-29T11:11:39;5.00;;;1.77;;
11771;SDS011;12556;55.748;13.194;2022-12-29T11:14:10;5.03;;;1.90;;
11771;SDS011;12556;55.748;13.194;2022-12-29T11:16:40;3.97;;;1.63;;
11771;SDS011;12556;55.748;13.194;2022-12-29T11:19:19;7.83;;;1.87;;
11771;SDS011;12556;55.748;13.194;2022-12-29T11:21:48;4.03;;;1.73;;
11771;SDS011;12556;55.748;13.194;2022-12-29T11:24:19;2.47;;;1.53;;
11771;SDS011;12556;55.748;13.194;2022-12-29T11:26:49;2.00;;;1.60;;
11771;SDS011;12556;55.748;13.194;2022-12-29T11:29:21;5.13;;;1.30;;
11771;SDS011;12556;55.748;13.194;2022-12-29T11:31:52;6.43;;;1.63;;
11771;SDS011;12556;55.748;13.194;2022-12-29T11:34:22;4.70;;;1.63;;
11771;SDS011;12556;55.748;13.194;2022-12-29T11:36:50;4.83;;;1.60;;
11771;SDS011;12556;55.748;13.194;2022-12-29T11:39:27;4.97;;;1.70;;
11771;SDS011;12556;55.748;13.194;2022-12-29T11:42:09;5.27;;;1.90;;
11771;SDS011;12556;55.748;13.194;2022-12-29T11:44:42;4.37;;;1.80;;
11771;SDS011;12556;55.748;13.194;2022-12-29T11:47:13;4.43;;;1.87;;
11771;SDS011;12556;55.748;13.194;2022-12-29T11:49:50;4.47;;;2.20;;
11771;SDS011;12556;55.748;13.194;2022-12-29T11:52:20;3.73;;;1.87;;
11771;SDS011;12556;55.748;13.194;2022-12-29T11:54:49;5.13;;;2.00;;
11771;SDS011;12556;55.748;13.194;2022-12-29T11:57:18;3.33;;;1.63;;
11771;SDS011;12556;55.748;13.194;2022-12-29T11:59:49;4.97;;;1.90;;
11771;SDS011;12556;55.748;13.194;2022-12-29T12:02:38;4.67;;;1.90;;
11771;SDS011;12556;55.748;13.194;2022-12-29T12:05:13;4.77;;;1.90;;
11771;SDS011;12556;55.748;13.194;2022-12-29T12:07:48;4.77;;;1.67;;
11771;SDS011;12556;55.748;13.194;2022-12-29T12:10:20;4.10;;;1.80;;
11771;SDS011;12556;55.748;13.194;2022-12-29T12:12:51;7.03;;;1.90;;
11771;SDS011;12556;55.748;13.194;2022-12-29T12:15:24;4.97;;;1.53;;
11771;SDS011;12556;55.748;13.194;2022-12-29T12:17:57;4.23;;;1.63;;
11771;SDS011;12556;55.748;13.194;2022-12-29T12:20:34;4.73;;;2.03;;
11771;SDS011;12556;55.748;13.194;2022-12-29T12:23:12;6.87;;;1.80;;
11771;SDS011;12556;55.748;13.194;2022-12-29T12:25:48;6.47;;;2.30;;
11771;SDS011;12556;55.748;13.194;2022-12-29T12:28:24;6.70;;;1.77;;
11771;SDS011;12556;55.748;13.194;2022-12-29T12:30:56;4.10;;;1.90;;
11771;SDS011;12556;55.748;13.194;2022-12-29T12:33:27;5.67;;;2.07;;
11771;SDS011;12556;55.748;13.194;2022-12-29T12:36:04;5.33;;;1.90;;
11771;SDS011;12556;55.748;13.194;2022-12-29T12:38:42;8.37;;;2.10;;
11771;SDS011;12556;55.748;13.194;2022-12-29T12:41:16;5.90;;;1.93;;
11771;SDS011;12556;55.748;13.194;2022-12-29T12:43:52;3.73;;;1.47;;
11771;SDS011;12556;55.748;13.194;2022-12-29T12:49:44;4.00;;;1.87;;
11771;SDS011;12556;55.748;13.194;2022-12-29T12:52:33;4.63;;;1.90;;
11771;SDS011;12556;55.748;13.194;2022-12-29T12:55:18;3.93;;;1.43;;
11771;SDS011;12556;55.748;13.194;2022-12-29T12:57:57;6.07;;;1.53;;
11771;SDS011;12556;55.748;13.194;2022-12-29T13:00:32;3.23;;;1.90;;
11771;SDS011;12556;55.748;13.194;2022-12-29T13:03:09;6.00;;;2.00;;
11771;SDS011;12556;55.748;13.194;2022-12-29T13:05:50;5.13;;;1.90;;
11771;SDS011;12556;55.748;13.194;2022-12-29T13:08:46;3.53;;;1.40;;
11771;SDS011;12556;55.748;13.194;2022-12-29T13:11:24;2.60;;;1.43;;
11771;SDS011;12556;55.748;13.194;2022-12-29T13:14:05;2.63;;;1.60;;
11771;SDS011;12556;55.748;13.194;2022-12-29T13:16:58;9.03;;;1.97;;
11771;SDS011;12556;55.748;13.194;2022-12-29T13:20:21;4.20;;;1.70;;
11771;SDS011;12556;55.748;13.194;2022-12-29T13:23:22;4.83;;;1.57;;
11771;SDS011;12556;55.748;13.194;2022-12-29T13:26:23;3.57;;;1.57;;
11771;SDS011;12556;55.748;13.194;2022-12-29T13:36:17;4.63;;;1.60;;
11771;SDS011;12556;55.748;13.194;2022-12-29T13:39:23;5.63;;;1.70;;
11771;SDS011;12556;55.748;13.194;2022-12-29T13:43:35;4.30;;;1.60;;
11771;SDS011;12556;55.748;13.194;2022-12-29T13:45:40;4.80;;;1.57;;
11771;SDS011;12556;55.748;13.194;2022-12-29T13:48:09;4.60;;;1.67;;
11771;SDS011;12556;55.748;13.194;2022-12-29T13:50:42;4.80;;;1.70;;
11771;SDS011;12556;55.748;13.194;2022-12-29T13:53:15;6.57;;;1.50;;
11771;SDS011;12556;55.748;13.194;2022-12-29T13:55:53;6.07;;;1.67;;
11771;SDS011;12556;55.748;13.194;2022-12-29T13:58:26;5.63;;;1.93;;
11771;SDS011;12556;55.748;13.194;2022-12-29T14:01:08;4.27;;;1.77;;
11771;SDS011;12556;55.748;13.194;2022-12-29T14:03:44;4.23;;;1.77;;
11771;SDS011;12556;55.748;13.194;2022-12-29T14:06:15;3.73;;;1.60;;
11771;SDS011;12556;55.748;13.194;2022-12-29T14:08:47;5.20;;;2.30;;
11771;SDS011;12556;55.748;13.194;2022-12-29T14:11:17;5.50;;;1.87;;
11771;SDS011;12556;55.748;13.194;2022-12-29T14:13:47;6.53;;;2.17;;
11771;SDS011;12556;55.748;13.194;2022-12-29T14:16:30;6.70;;;2.10;;
11771;SDS011;12556;55.748;13.194;2022-12-29T14:19:05;6.17;;;1.97;;
11771;SDS011;12556;55.748;13.194;2022-12-29T14:21:39;5.50;;;1.70;;
11771;SDS011;12556;55.748;13.194;2022-12-29T14:26:56;3.17;;;1.80;;
11771;SDS011;12556;55.748;13.194;2022-12-29T14:29:42;3.87;;;1.57;;
11771;SDS011;12556;55.748;13.194;2022-12-29T14:38:12;6.17;;;2.13;;
11771;SDS011;12556;55.748;13.194;2022-12-29T14:40:46;5.93;;;1.87;;
11771;SDS011;12556;55.748;13.194;2022-12-29T14:43:18;4.97;;;1.83;;
11771;SDS011;12556;55.748;13.194;2022-12-29T14:45:52;5.70;;;2.40;;
11771;SDS011;12556;55.748;13.194;2022-12-29T14:48:32;4.37;;;2.20;;
11771;SDS011;12556;55.748;13.194;2022-12-29T14:51:18;6.33;;;1.73;;
11771;SDS011;12556;55.748;13.194;2022-12-29T14:53:47;7.80;;;2.37;;
11771;SDS011;12556;55.748;13.194;2022-12-29T14:56:17;7.83;;;2.13;;
11771;SDS011;12556;55.748;13.194;2022-12-29T14:58:49;6.03;;;1.80;;
11771;SDS011;12556;55.748;13.194;2022-12-29T15:01:20;3.87;;;1.90;;
11771;SDS011;12556;55.748;13.194;2022-12-29T15:03:51;3.57;;;2.00;;
11771;SDS011;12556;55.748;13.194;2022-12-29T15:06:22;4.07;;;1.77;;
11771;SDS011;12556;55.748;13.194;2022-12-29T15:08:51;5.13;;;2.07;;
11771;SDS011;12556;55.748;13.194;2022-12-29T15:11:28;5.57;;;1.97;;
11771;SDS011;12556;55.748;13.194;2022-12-29T15:16:57;5.57;;;2.10;;
11771;SDS011;12556;55.748;13.194;2022-12-29T15:19:25;4.73;;;1.83;;
11771;SDS011;12556;55.748;13.194;2022-12-29T15:21:52;8.13;;;1.83;;
11771;SDS011;12556;55.748;13.194;2022-12-29T15:24:20;5.23;;;1.80;;
11771;SDS011;12556;55.748;13.194;2022-12-29T15:26:49;7.33;;;2.30;;
11771;SDS011;12556;55.748;13.194;2022-12-29T15:29:32;7.07;;;2.87;;
11771;SDS011;12556;55.748;13.194;2022-12-29T15:34:47;5.30;;;2.13;;